Time;durP1;ratioP1;P1;durP2;ratioP2;P2;SDS_P1;SDS_P2;PMS_P1;PMS_P2;Temp;Humidity;BMP_temperature;BMP_pressure;BME280_temperature;BME280_humidity;BME280_pressure;Samples;Min_cycle;Max_cycle;Signal;HPM_P1;HPM_P2
2023/06/04 00:00:50;;;;;;;5.00;2.40;;;;;;;;;;5094155;28;20651;-63
2023/06/04 00:03:16;;;;;;;2.77;2.40;;;;;;;;;;5093518;28;20293;-62
2023/06/04 00:05:42;;;;;;;2.87;2.40;;;;;;;;;;5093469;28;20177;-63
2023/06/04 00:08:08;;;;;;;2.83;2.27;;;;;;;;;;5093486;28;20177;-63
2023/06/04 00:10:34;;;;;;;2.67;2.30;;;;;;;;;;5093329;28;20247;-62
2023/06/04 00:13:00;;;;;;;3.07;2.53;;;;;;;;;;5093578;28;20201;-62
2023/06/04 00:15:26;;;;;;;3.80;2.40;;;;;;;;;;5093310;28;20220;-62
2023/06/04 00:17:53;;;;;;;3.10;2.40;;;;;;;;;;5093299;28;20698;-62
2023/06/04 00:20:19;;;;;;;3.47;2.70;;;;;;;;;;5093276;28;20169;-63
2023/06/04 00:22:45;;;;;;;5.60;2.20;;;;;;;;;;5093204;28;20280;-63
2023/06/04 00:25:11;;;;;;;2.50;2.30;;;;;;;;;;5075085;28;20205;-65
2023/06/04 00:27:37;;;;;;;2.60;2.30;;;;;;;;;;5093370;28;20184;-63
2023/06/04 00:30:04;;;;;;;3.40;2.27;;;;;;;;;;5093116;28;20184;-63
2023/06/04 00:32:30;;;;;;;2.30;2.10;;;;;;;;;;5093023;28;20678;-63
2023/06/04 00:34:57;;;;;;;4.47;2.33;;;;;;;;;;5093027;28;20242;-63
2023/06/04 00:37:24;;;;;;;4.17;2.33;;;;;;;;;;5093106;28;20266;-63
2023/06/04 00:39:50;;;;;;;5.40;2.30;;;;;;;;;;5093406;28;20545;-63
2023/06/04 00:42:16;;;;;;;4.10;2.10;;;;;;;;;;5093038;28;20661;-64
2023/06/04 00:44:44;;;;;;;6.60;2.47;;;;;;;;;;5093055;28;20177;-66
2023/06/04 00:47:11;;;;;;;2.30;2.10;;;;;;;;;;5075352;28;20181;-65
2023/06/04 00:49:37;;;;;;;6.00;2.17;;;;;;;;;;5093280;28;20221;-66
2023/06/04 00:52:03;;;;;;;4.43;2.20;;;;;;;;;;5092934;28;20169;-64
2023/06/04 00:54:29;;;;;;;2.70;2.03;;;;;;;;;;5094477;28;20212;-65
2023/06/04 00:56:55;;;;;;;4.70;2.07;;;;;;;;;;5097092;28;20508;-65
2023/06/04 00:59:22;;;;;;;2.70;2.23;;;;;;;;;;5096953;28;20180;-64
2023/06/04 01:01:51;;;;;;;4.77;2.33;;;;;;;;;;5078744;28;20181;-66
2023/06/04 01:04:27;;;;;;;4.47;2.30;;;;;;;;;;5096724;28;20578;-65
2023/06/04 01:06:57;;;;;;;9.00;2.40;;;;;;;;;;5078525;28;20676;-64
2023/06/04 01:09:26;;;;;;;2.57;2.17;;;;;;;;;;5096947;28;20549;-65
2023/06/04 01:11:52;;;;;;;3.37;2.20;;;;;;;;;;5097228;28;20184;-66
2023/06/04 01:14:18;;;;;;;2.97;2.30;;;;;;;;;;5097529;28;20201;-66
2023/06/04 01:17:02;;;;;;;3.83;1.93;;;;;;;;;;5097089;28;20641;-66
2023/06/04 01:19:42;;;;;;;6.43;2.57;;;;;;;;;;5097063;28;20164;-66
2023/06/04 01:22:20;;;;;;;3.00;2.30;;;;;;;;;;5097119;28;20524;-66
2023/06/04 01:24:49;;;;;;;3.13;2.20;;;;;;;;;;5097568;28;20171;-64
2023/06/04 01:27:15;;;;;;;4.07;2.67;;;;;;;;;;5097150;28;20521;-65
2023/06/04 01:29:42;;;;;;;2.47;2.27;;;;;;;;;;5097219;28;20177;-64
2023/06/04 01:32:08;;;;;;;6.37;2.60;;;;;;;;;;5097206;28;20175;-64
2023/06/04 01:34:43;;;;;;;3.47;2.30;;;;;;;;;;5096781;28;20574;-64
2023/06/04 01:37:11;;;;;;;4.53;2.30;;;;;;;;;;5097051;28;20627;-64
2023/06/04 01:39:37;;;;;;;6.50;2.70;;;;;;;;;;5096724;28;20662;-64
2023/06/04 01:42:03;;;;;;;2.80;2.07;;;;;;;;;;5097449;28;20173;-63
2023/06/04 01:44:29;;;;;;;3.07;2.03;;;;;;;;;;5096517;28;20225;-63
2023/06/04 01:46:55;;;;;;;4.60;2.40;;;;;;;;;;5077712;28;20589;-63
2023/06/04 01:49:21;;;;;;;2.43;2.23;;;;;;;;;;5096086;28;20229;-63
2023/06/04 01:51:47;;;;;;;4.57;2.13;;;;;;;;;;5096050;28;20180;-63
2023/06/04 01:54:13;;;;;;;3.47;2.20;;;;;;;;;;5077748;28;20223;-64
2023/06/04 01:56:39;;;;;;;6.77;2.53;;;;;;;;;;5096023;28;20606;-63
2023/06/04 01:59:05;;;;;;;2.53;2.07;;;;;;;;;;5095828;28;20200;-63
2023/06/04 02:01:31;;;;;;;2.50;1.97;;;;;;;;;;5092534;22;20258;-69
2023/06/04 02:03:57;;;;;;;6.93;2.90;;;;;;;;;;5095116;28;20216;-68
2023/06/04 02:06:24;;;;;;;4.33;2.97;;;;;;;;;;5113804;28;20173;-69
2023/06/04 02:08:53;;;;;;;3.50;2.57;;;;;;;;;;5111299;28;20188;-67
2023/06/04 02:11:18;;;;;;;4.13;2.50;;;;;;;;;;5098251;28;20181;-68
2023/06/04 02:13:44;;;;;;;2.77;2.10;;;;;;;;;;5096041;28;20188;-67
2023/06/04 02:16:10;;;;;;;3.93;2.50;;;;;;;;;;5077702;28;20191;-69
2023/06/04 02:18:36;;;;;;;3.90;2.23;;;;;;;;;;5077391;28;20304;-67
2023/06/04 02:21:02;;;;;;;6.67;2.40;;;;;;;;;;5096056;28;20169;-67
2023/06/04 02:23:28;;;;;;;3.37;2.60;;;;;;;;;;5095835;28;20193;-68
2023/06/04 02:25:54;;;;;;;3.47;2.50;;;;;;;;;;5095776;28;20199;-67
2023/06/04 02:28:21;;;;;;;4.13;2.70;;;;;;;;;;5095673;28;20194;-68
2023/06/04 02:30:47;;;;;;;6.13;2.40;;;;;;;;;;5077373;28;20177;-67
2023/06/04 02:33:13;;;;;;;2.63;2.27;;;;;;;;;;5095506;28;20201;-67
2023/06/04 02:35:39;;;;;;;2.93;2.17;;;;;;;;;;5077256;28;20635;-67
2023/06/04 02:38:05;;;;;;;2.50;2.30;;;;;;;;;;5095290;28;20243;-67
2023/06/04 02:40:31;;;;;;;6.80;2.37;;;;;;;;;;5077023;28;20182;-67
2023/06/04 02:42:57;;;;;;;2.37;2.07;;;;;;;;;;5095392;28;20200;-68
2023/06/04 02:45:23;;;;;;;4.93;2.40;;;;;;;;;;5077041;28;20188;-68
2023/06/04 02:47:49;;;;;;;2.77;2.20;;;;;;;;;;5095270;28;20205;-67
2023/06/04 02:50:15;;;;;;;4.27;2.33;;;;;;;;;;5077179;28;20188;-67
2023/06/04 02:52:42;;;;;;;3.70;2.20;;;;;;;;;;5095228;28;20197;-67
2023/06/04 02:55:12;;;;;;;3.97;2.20;;;;;;;;;;5076852;28;20266;-67
2023/06/04 02:57:40;;;;;;;3.40;2.23;;;;;;;;;;5076710;28;20242;-67
2023/06/04 03:00:13;;;;;;;4.50;2.30;;;;;;;;;;5095525;28;20199;-67
2023/06/04 03:02:42;;;;;;;3.83;2.50;;;;;;;;;;5076540;28;20217;-67
2023/06/04 03:05:10;;;;;;;3.73;2.33;;;;;;;;;;5094739;28;20184;-67
2023/06/04 03:07:36;;;;;;;3.90;2.53;;;;;;;;;;5076597;28;20181;-68
2023/06/04 03:10:03;;;;;;;6.53;2.80;;;;;;;;;;5094537;28;20545;-68
2023/06/04 03:12:29;;;;;;;3.50;2.53;;;;;;;;;;5094892;28;20655;-68
2023/06/04 03:14:56;;;;;;;5.03;2.90;;;;;;;;;;5094969;28;20252;-67
2023/06/04 03:17:22;;;;;;;5.20;2.33;;;;;;;;;;5075872;28;20208;-68
2023/06/04 03:19:48;;;;;;;2.80;2.13;;;;;;;;;;5094333;28;20322;-69
2023/06/04 03:22:14;;;;;;;3.67;2.60;;;;;;;;;;5094403;28;20208;-68
2023/06/04 03:24:40;;;;;;;5.60;2.73;;;;;;;;;;5076186;28;20184;-67
2023/06/04 03:27:07;;;;;;;3.43;2.50;;;;;;;;;;5094340;28;20180;-68
2023/06/04 03:29:33;;;;;;;3.60;2.63;;;;;;;;;;5094407;28;20200;-67
2023/06/04 03:31:59;;;;;;;3.57;2.33;;;;;;;;;;5094239;28;20201;-68
2023/06/04 03:34:25;;;;;;;6.40;2.87;;;;;;;;;;5094843;28;20230;-67
2023/06/04 03:36:55;;;;;;;6.63;2.80;;;;;;;;;;5094883;28;20173;-67
2023/06/04 03:39:22;;;;;;;3.97;2.90;;;;;;;;;;5094049;28;20291;-68
2023/06/04 03:41:48;;;;;;;5.07;2.50;;;;;;;;;;5076090;28;20283;-68
2023/06/04 03:44:14;;;;;;;4.87;2.70;;;;;;;;;;5094461;28;20173;-68
2023/06/04 03:46:41;;;;;;;5.73;3.20;;;;;;;;;;5094401;28;20172;-68
2023/06/04 03:49:06;;;;;;;5.70;2.70;;;;;;;;;;5076005;28;20192;-68
2023/06/04 03:51:33;;;;;;;3.60;2.67;;;;;;;;;;5094486;28;20189;-69
2023/06/04 03:53:59;;;;;;;4.93;2.80;;;;;;;;;;5094176;28;20180;-67
2023/06/04 03:56:26;;;;;;;3.53;3.00;;;;;;;;;;5093906;28;20212;-67
2023/06/04 03:58:52;;;;;;;5.50;2.90;;;;;;;;;;5094164;28;20197;-67
2023/06/04 04:01:18;;;;;;;4.33;2.80;;;;;;;;;;5100465;28;20204;-69
2023/06/04 04:03:48;;;;;;;4.43;2.53;;;;;;;;;;5113232;28;20197;-67
2023/06/04 04:06:14;;;;;;;3.23;2.50;;;;;;;;;;5110482;28;20168;-68
2023/06/04 04:08:42;;;;;;;3.30;2.50;;;;;;;;;;5109983;28;20177;-68
2023/06/04 04:11:17;;;;;;;5.13;2.60;;;;;;;;;;5107520;28;20222;-68
2023/06/04 04:13:44;;;;;;;5.70;2.67;;;;;;;;;;5105345;28;20204;-68
2023/06/04 04:16:10;;;;;;;3.73;3.20;;;;;;;;;;5101900;28;20185;-69
2023/06/04 04:18:37;;;;;;;4.93;3.63;;;;;;;;;;5078239;28;20208;-67
2023/06/04 04:21:03;;;;;;;7.10;4.17;;;;;;;;;;5094531;28;20173;-67
2023/06/04 04:23:30;;;;;;;6.40;3.50;;;;;;;;;;5076302;28;20205;-67
2023/06/04 04:25:56;;;;;;;6.60;3.23;;;;;;;;;;5093969;28;20173;-68
2023/06/04 04:28:22;;;;;;;4.17;2.87;;;;;;;;;;5094229;28;20169;-68
2023/06/04 04:30:49;;;;;;;4.93;2.97;;;;;;;;;;5098102;28;20184;-67
2023/06/04 04:33:16;;;;;;;4.57;3.10;;;;;;;;;;5097946;28;20224;-67
2023/06/04 04:35:44;;;;;;;5.83;3.40;;;;;;;;;;5080260;28;20187;-68
2023/06/04 04:38:10;;;;;;;5.80;3.37;;;;;;;;;;5097458;28;20196;-67
2023/06/04 04:40:36;;;;;;;7.40;3.30;;;;;;;;;;5097592;28;20171;-68
2023/06/04 04:43:02;;;;;;;9.80;4.53;;;;;;;;;;5098038;28;20661;-68
2023/06/04 04:45:28;;;;;;;7.47;4.37;;;;;;;;;;5097603;28;20612;-68
2023/06/04 04:47:54;;;;;;;10.33;4.37;;;;;;;;;;5097368;28;20214;-68
2023/06/04 04:50:20;;;;;;;6.20;3.50;;;;;;;;;;5098080;28;20181;-68
2023/06/04 04:52:46;;;;;;;7.53;3.30;;;;;;;;;;5079266;28;20204;-68
2023/06/04 04:55:12;;;;;;;3.83;3.00;;;;;;;;;;5079482;28;20238;-69
2023/06/04 04:57:39;;;;;;;6.13;2.90;;;;;;;;;;5097748;28;20232;-68
2023/06/04 05:00:07;;;;;;;3.67;2.77;;;;;;;;;;5079576;28;20181;-69
2023/06/04 05:02:33;;;;;;;4.77;2.80;;;;;;;;;;5097862;28;20232;-69
2023/06/04 05:04:59;;;;;;;5.13;2.90;;;;;;;;;;5097321;28;20185;-69
2023/06/04 05:07:25;;;;;;;7.93;2.90;;;;;;;;;;5097344;28;20193;-68
2023/06/04 05:09:51;;;;;;;5.03;3.10;;;;;;;;;;5078933;28;20177;-68
2023/06/04 05:12:18;;;;;;;5.13;3.43;;;;;;;;;;5079062;28;20201;-69
2023/06/04 05:14:44;;;;;;;4.83;2.97;;;;;;;;;;5099321;28;20635;-68
2023/06/04 05:17:10;;;;;;;5.20;2.90;;;;;;;;;;5099229;28;20223;-68
2023/06/04 05:19:37;;;;;;;5.33;2.93;;;;;;;;;;5099338;28;20184;-69
2023/06/04 05:22:03;;;;;;;5.40;3.20;;;;;;;;;;5080748;28;20302;-70
2023/06/04 05:24:29;;;;;;;6.70;2.90;;;;;;;;;;5099132;28;20723;-68
2023/06/04 05:26:56;;;;;;;3.73;2.80;;;;;;;;;;5099796;28;20177;-68
2023/06/04 05:29:22;;;;;;;5.07;2.77;;;;;;;;;;5101380;28;20514;-69
2023/06/04 05:31:48;;;;;;;3.30;2.97;;;;;;;;;;5080733;28;20201;-68
2023/06/04 05:34:16;;;;;;;5.67;3.07;;;;;;;;;;5098519;28;20306;-68
2023/06/04 05:36:42;;;;;;;6.53;2.73;;;;;;;;;;5081290;28;20188;-68
2023/06/04 05:39:09;;;;;;;3.63;2.63;;;;;;;;;;5099452;28;20254;-68
2023/06/04 05:41:35;;;;;;;3.10;2.77;;;;;;;;;;5097684;28;20203;-68
2023/06/04 05:44:01;;;;;;;8.33;3.47;;;;;;;;;;5079652;28;20661;-68
2023/06/04 05:46:27;;;;;;;3.87;2.97;;;;;;;;;;5097176;28;20692;-69
2023/06/04 05:48:54;;;;;;;5.20;3.07;;;;;;;;;;5078870;28;20209;-68
2023/06/04 05:51:21;;;;;;;7.37;3.20;;;;;;;;;;5096923;28;20260;-69
2023/06/04 05:53:47;;;;;;;6.97;2.83;;;;;;;;;;5096900;28;20220;-68
2023/06/04 05:56:13;;;;;;;6.00;3.07;;;;;;;;;;5096761;28;20181;-69
2023/06/04 05:58:39;;;;;;;6.63;3.10;;;;;;;;;;5078600;28;20212;-67
2023/06/04 06:01:06;;;;;;;4.27;3.23;;;;;;;;;;5078701;28;20314;-69
2023/06/04 06:03:32;;;;;;;5.27;3.17;;;;;;;;;;5078367;28;20212;-68
2023/06/04 06:05:59;;;;;;;7.97;3.60;;;;;;;;;;5078424;28;20216;-68
2023/06/04 06:08:25;;;;;;;4.07;3.00;;;;;;;;;;5096268;28;20598;-67
2023/06/04 06:10:51;;;;;;;4.87;2.90;;;;;;;;;;5097400;28;20310;-68
2023/06/04 06:13:17;;;;;;;4.87;2.87;;;;;;;;;;5078188;28;20207;-69
2023/06/04 06:15:44;;;;;;;8.70;3.60;;;;;;;;;;5096025;28;20545;-68
2023/06/04 06:18:10;;;;;;;6.70;3.10;;;;;;;;;;5095892;28;20204;-68
2023/06/04 06:20:36;;;;;;;7.77;2.87;;;;;;;;;;5095814;28;20261;-68
2023/06/04 06:23:08;;;;;;;3.17;2.67;;;;;;;;;;5096216;28;20193;-68
2023/06/04 06:25:33;;;;;;;3.93;2.83;;;;;;;;;;5096259;28;20204;-68
2023/06/04 06:27:59;;;;;;;4.80;3.00;;;;;;;;;;5077362;28;20220;-67
2023/06/04 06:30:25;;;;;;;6.63;2.53;;;;;;;;;;5077332;28;20238;-68
2023/06/04 06:32:53;;;;;;;7.93;2.97;;;;;;;;;;5077153;28;20223;-68
2023/06/04 06:35:19;;;;;;;4.47;3.10;;;;;;;;;;5077266;28;20192;-68
2023/06/04 06:37:45;;;;;;;4.47;3.10;;;;;;;;;;5095225;28;20204;-68
2023/06/04 06:40:11;;;;;;;5.87;2.77;;;;;;;;;;5077354;28;20230;-68
2023/06/04 06:42:37;;;;;;;8.17;3.40;;;;;;;;;;5095581;28;20686;-68
2023/06/04 06:45:03;;;;;;;4.10;3.27;;;;;;;;;;5095687;28;20188;-68
2023/06/04 06:47:29;;;;;;;5.70;3.13;;;;;;;;;;5079362;28;20281;-68
2023/06/04 06:49:55;;;;;;;5.77;3.30;;;;;;;;;;5093646;28;20189;-69
2023/06/04 06:52:21;;;;;;;4.63;3.33;;;;;;;;;;5110630;28;20201;-68
2023/06/04 06:54:47;;;;;;;6.30;3.20;;;;;;;;;;5098779;28;20263;-68
2023/06/04 06:57:13;;;;;;;6.10;2.83;;;;;;;;;;5078552;28;20181;-67
2023/06/04 06:59:39;;;;;;;6.47;2.80;;;;;;;;;;5079018;28;20188;-68
2023/06/04 07:02:06;;;;;;;6.13;3.23;;;;;;;;;;5078305;28;20573;-69
2023/06/04 07:04:32;;;;;;;3.07;2.77;;;;;;;;;;5077538;28;20324;-67
2023/06/04 07:06:58;;;;;;;4.17;2.60;;;;;;;;;;5077520;28;20181;-68
2023/06/04 07:09:24;;;;;;;6.07;2.50;;;;;;;;;;5077986;28;20546;-68
2023/06/04 07:11:50;;;;;;;3.60;2.80;;;;;;;;;;5096931;28;20610;-69
2023/06/04 07:14:16;;;;;;;3.47;2.70;;;;;;;;;;5080696;28;20184;-68
2023/06/04 07:16:42;;;;;;;6.43;2.40;;;;;;;;;;5111781;28;20169;-69
2023/06/04 07:19:08;;;;;;;4.20;2.50;;;;;;;;;;5096122;28;20204;-69
2023/06/04 07:21:33;;;;;;;5.43;2.53;;;;;;;;;;5110004;28;20173;-69
2023/06/04 07:23:59;;;;;;;4.97;2.90;;;;;;;;;;5110058;28;20176;-69
2023/06/04 07:26:26;;;;;;;3.37;2.57;;;;;;;;;;5090181;28;20199;-68
2023/06/04 07:28:52;;;;;;;8.90;3.00;;;;;;;;;;5094891;28;20264;-68
2023/06/04 07:31:18;;;;;;;4.60;2.90;;;;;;;;;;5094695;28;20212;-68
2023/06/04 07:33:44;;;;;;;9.90;2.70;;;;;;;;;;5094842;28;20174;-68
2023/06/04 07:36:11;;;;;;;5.17;3.20;;;;;;;;;;5094584;28;20215;-68
2023/06/04 07:38:37;;;;;;;6.83;3.67;;;;;;;;;;5094468;28;20201;-68
2023/06/04 07:41:04;;;;;;;6.17;3.20;;;;;;;;;;5076581;28;20207;-69
2023/06/04 07:43:30;;;;;;;6.43;2.97;;;;;;;;;;5095101;28;20200;-68
2023/06/04 07:45:56;;;;;;;3.17;2.43;;;;;;;;;;5095256;28;20177;-68
2023/06/04 07:48:30;;;;;;;4.20;2.70;;;;;;;;;;5095626;28;20191;-68
2023/06/04 07:50:56;;;;;;;2.80;2.43;;;;;;;;;;5095695;28;20252;-69
2023/06/04 07:53:22;;;;;;;3.80;2.60;;;;;;;;;;5077348;28;20243;-68
2023/06/04 07:55:48;;;;;;;4.27;2.80;;;;;;;;;;5094825;28;20177;-67
2023/06/04 07:58:14;;;;;;;5.43;2.57;;;;;;;;;;5096083;28;20243;-68
2023/06/04 08:00:40;;;;;;;5.63;2.70;;;;;;;;;;5076998;28;20207;-68
2023/06/04 08:03:06;;;;;;;2.77;2.40;;;;;;;;;;5094800;28;20217;-68
2023/06/04 08:05:33;;;;;;;4.13;2.50;;;;;;;;;;5094984;28;20177;-67
2023/06/04 08:08:00;;;;;;;6.80;2.73;;;;;;;;;;5076435;28;20664;-68
2023/06/04 08:10:26;;;;;;;5.10;2.40;;;;;;;;;;5076469;28;20272;-68
2023/06/04 08:12:52;;;;;;;3.90;2.27;;;;;;;;;;5094586;28;20236;-68
2023/06/04 08:15:18;;;;;;;7.47;2.20;;;;;;;;;;5076338;28;20177;-69
2023/06/04 08:17:43;;;;;;;2.87;2.50;;;;;;;;;;5094502;28;20226;-68
2023/06/04 08:20:10;;;;;;;4.80;2.43;;;;;;;;;;5115338;22;20230;-65
2023/06/04 08:22:35;;;;;;;3.47;2.10;;;;;;;;;;5093831;28;20185;-66
2023/06/04 08:25:03;;;;;;;3.23;2.23;;;;;;;;;;5093290;28;20177;-66
2023/06/04 08:27:29;;;;;;;3.17;2.10;;;;;;;;;;5093485;28;20176;-66
2023/06/04 08:29:55;;;;;;;3.20;2.17;;;;;;;;;;5093254;28;20189;-65
2023/06/04 08:32:21;;;;;;;2.77;2.00;;;;;;;;;;5093126;28;20170;-65
2023/06/04 08:34:56;;;;;;;3.27;2.50;;;;;;;;;;5075505;28;20654;-65
2023/06/04 08:37:24;;;;;;;3.23;2.07;;;;;;;;;;5092536;28;20195;-65
2023/06/04 08:39:50;;;;;;;3.13;2.07;;;;;;;;;;5093224;28;20195;-65
2023/06/04 08:42:19;;;;;;;4.53;2.90;;;;;;;;;;5093159;28;20257;-66
2023/06/04 08:44:46;;;;;;;5.63;2.30;;;;;;;;;;5075105;28;20311;-66
2023/06/04 08:47:13;;;;;;;7.33;2.50;;;;;;;;;;5093034;28;20252;-66
2023/06/04 08:49:41;;;;;;;4.20;2.50;;;;;;;;;;5093023;28;20204;-66
2023/06/04 08:52:07;;;;;;;6.33;2.50;;;;;;;;;;5093076;28;20690;-65
2023/06/04 08:54:33;;;;;;;4.13;2.10;;;;;;;;;;5093434;28;20177;-65
2023/06/04 08:57:00;;;;;;;2.80;2.13;;;;;;;;;;5093411;28;20181;-66
2023/06/04 08:59:27;;;;;;;3.17;2.20;;;;;;;;;;5093256;28;20224;-66
2023/06/04 09:01:57;;;;;;;3.23;2.07;;;;;;;;;;5093086;28;20254;-65
2023/06/04 09:04:23;;;;;;;2.93;1.93;;;;;;;;;;5092984;28;20302;-66
2023/06/04 09:06:49;;;;;;;5.60;1.90;;;;;;;;;;5092869;28;20173;-65
2023/06/04 09:09:17;;;;;;;15.00;2.33;;;;;;;;;;5093153;28;20691;-64
2023/06/04 09:11:53;;;;;;;3.40;1.97;;;;;;;;;;5093211;28;20197;-65
2023/06/04 09:14:20;;;;;;;3.57;2.13;;;;;;;;;;5092797;28;20176;-66
2023/06/04 09:16:45;;;;;;;5.37;2.37;;;;;;;;;;5096292;28;20186;-66
2023/06/04 09:19:11;;;;;;;1.90;1.80;;;;;;;;;;5096282;28;20197;-67
2023/06/04 09:21:58;;;;;;;7.07;2.20;;;;;;;;;;5097085;28;20173;-66
2023/06/04 09:24:39;;;;;;;3.43;2.20;;;;;;;;;;5078088;28;20226;-66
2023/06/04 09:27:16;;;;;;;2.60;2.27;;;;;;;;;;5096486;28;20164;-66
2023/06/04 09:29:52;;;;;;;3.13;2.20;;;;;;;;;;5096287;28;20200;-66
2023/06/04 09:32:21;;;;;;;3.53;2.47;;;;;;;;;;5096353;28;20179;-65
2023/06/04 09:34:47;;;;;;;6.63;2.93;;;;;;;;;;5096348;28;20181;-66
2023/06/04 09:37:21;;;;;;;4.80;2.93;;;;;;;;;;5096261;28;20697;-65
2023/06/04 09:39:54;;;;;;;3.80;2.57;;;;;;;;;;5096325;28;20192;-65
2023/06/04 09:42:21;;;;;;;4.03;2.40;;;;;;;;;;5096158;28;20181;-66
2023/06/04 09:44:47;;;;;;;5.57;2.80;;;;;;;;;;5096179;28;20647;-65
2023/06/04 09:47:13;;;;;;;4.57;1.97;;;;;;;;;;5077909;28;20268;-65
2023/06/04 09:49:47;;;;;;;3.27;2.00;;;;;;;;;;5077894;28;20266;-65
2023/06/04 09:52:13;;;;;;;3.47;2.20;;;;;;;;;;5095992;28;20173;-65
2023/06/04 09:54:41;;;;;;;2.20;2.00;;;;;;;;;;5077809;28;20180;-66
2023/06/04 09:57:20;;;;;;;4.30;2.67;;;;;;;;;;5077853;28;20185;-65
2023/06/04 09:59:49;;;;;;;2.90;2.37;;;;;;;;;;5077730;28;20660;-65
2023/06/04 10:02:19;;;;;;;2.50;2.03;;;;;;;;;;5095905;28;20169;-66
2023/06/04 10:04:47;;;;;;;3.03;2.30;;;;;;;;;;5077438;28;20177;-66
2023/06/04 10:07:13;;;;;;;3.13;2.30;;;;;;;;;;5077495;28;20188;-66
2023/06/04 10:09:45;;;;;;;3.97;2.63;;;;;;;;;;5095739;28;20732;-65
2023/06/04 10:12:11;;;;;;;3.57;2.60;;;;;;;;;;5077747;28;20173;-66
2023/06/04 10:14:41;;;;;;;3.83;2.30;;;;;;;;;;5095608;28;20674;-66
2023/06/04 10:17:08;;;;;;;6.93;2.60;;;;;;;;;;5078356;28;20177;-67
2023/06/04 10:19:35;;;;;;;4.40;2.83;;;;;;;;;;5077639;28;20227;-66
2023/06/04 10:22:01;;;;;;;3.13;2.50;;;;;;;;;;5095485;28;20252;-66
2023/06/04 10:24:27;;;;;;;2.97;2.50;;;;;;;;;;5077377;28;20213;-66
2023/06/04 10:26:55;;;;;;;3.87;2.30;;;;;;;;;;5094222;28;20173;-66
2023/06/04 10:29:22;;;;;;;5.30;2.70;;;;;;;;;;5095228;28;20596;-66
2023/06/04 10:31:48;;;;;;;5.80;2.97;;;;;;;;;;5095509;28;20192;-68
2023/06/04 10:34:14;;;;;;;5.33;2.70;;;;;;;;;;5095461;28;20173;-67
2023/06/04 10:36:46;;;;;;;2.93;2.27;;;;;;;;;;5095483;28;20177;-66
2023/06/04 10:39:12;;;;;;;2.90;2.30;;;;;;;;;;5094997;28;20197;-67
2023/06/04 10:41:38;;;;;;;2.87;2.30;;;;;;;;;;5094949;28;20226;-66
2023/06/04 10:44:04;;;;;;;3.90;2.33;;;;;;;;;;5095575;28;20173;-66
2023/06/04 10:46:43;;;;;;;8.23;2.40;;;;;;;;;;5076847;28;20547;-66
2023/06/04 10:49:12;;;;;;;14.20;2.77;;;;;;;;;;5094844;28;20218;-66
2023/06/04 10:51:38;;;;;;;5.40;2.53;;;;;;;;;;5095061;28;20631;-66
2023/06/04 10:54:04;;;;;;;2.47;2.27;;;;;;;;;;5094725;28;20173;-66
2023/06/04 10:56:37;;;;;;;2.40;2.20;;;;;;;;;;5094897;28;20263;-67
2023/06/04 10:59:13;;;;;;;5.30;2.50;;;;;;;;;;5095083;28;20189;-67
2023/06/04 11:01:40;;;;;;;5.40;2.50;;;;;;;;;;5077088;28;20180;-67
2023/06/04 11:04:06;;;;;;;4.57;2.67;;;;;;;;;;5076440;28;20177;-67
2023/06/04 11:06:32;;;;;;;5.93;2.50;;;;;;;;;;5076513;28;20647;-65
2023/06/04 11:09:05;;;;;;;7.23;2.80;;;;;;;;;;5076403;28;20189;-66
2023/06/04 11:11:31;;;;;;;5.97;2.60;;;;;;;;;;5076272;28;20181;-67
2023/06/04 11:14:18;;;;;;;4.60;2.77;;;;;;;;;;5076221;28;20181;-65
2023/06/04 11:16:44;;;;;;;4.90;2.70;;;;;;;;;;5076286;28;20176;-66
2023/06/04 11:19:10;;;;;;;5.17;3.03;;;;;;;;;;5076030;28;20291;-65
2023/06/04 11:21:36;;;;;;;3.13;2.77;;;;;;;;;;5076320;28;20284;-65
2023/06/04 11:24:03;;;;;;;5.50;2.40;;;;;;;;;;5076144;28;20219;-65
2023/06/04 11:26:32;;;;;;;3.13;2.47;;;;;;;;;;5094300;28;20165;-65
2023/06/04 11:28:59;;;;;;;3.83;2.23;;;;;;;;;;5076097;28;20226;-65
2023/06/04 11:31:24;;;;;;;4.60;2.33;;;;;;;;;;5094103;28;20205;-65
2023/06/04 11:33:51;;;;;;;2.63;2.30;;;;;;;;;;5094202;28;20660;-67
2023/06/04 11:36:25;;;;;;;3.93;2.40;;;;;;;;;;5093951;28;20181;-67
2023/06/04 11:39:02;;;;;;;3.90;2.70;;;;;;;;;;5093794;28;20219;-65
2023/06/04 11:41:28;;;;;;;3.10;2.60;;;;;;;;;;5075745;28;20283;-69
2023/06/04 11:43:54;;;;;;;3.13;2.70;;;;;;;;;;5093819;28;20218;-66
2023/06/04 11:46:20;;;;;;;6.77;2.70;;;;;;;;;;5075741;28;20173;-67
2023/06/04 11:48:46;;;;;;;7.70;2.80;;;;;;;;;;5093815;28;20230;-68
2023/06/04 11:51:13;;;;;;;4.13;2.57;;;;;;;;;;5075633;28;20623;-67
2023/06/04 11:53:39;;;;;;;5.33;2.47;;;;;;;;;;5075686;28;20708;-65
2023/06/04 11:56:05;;;;;;;4.67;2.50;;;;;;;;;;5075639;28;20227;-67
2023/06/04 11:58:32;;;;;;;3.83;2.30;;;;;;;;;;5093503;28;20197;-67
2023/06/04 12:00:58;;;;;;;6.17;2.87;;;;;;;;;;5075613;28;20204;-67
2023/06/04 12:03:40;;;;;;;4.77;2.90;;;;;;;;;;5093689;28;20198;-67
2023/06/04 12:06:13;;;;;;;3.50;3.07;;;;;;;;;;5094030;28;20260;-66
2023/06/04 12:08:46;;;;;;;3.27;2.80;;;;;;;;;;5093985;28;20636;-65
2023/06/04 12:11:22;;;;;;;4.77;2.70;;;;;;;;;;5075844;28;20201;-66
2023/06/04 12:13:48;;;;;;;3.33;3.00;;;;;;;;;;5093882;28;20199;-66
2023/06/04 12:16:17;;;;;;;5.70;2.70;;;;;;;;;;5075302;28;20219;-65
2023/06/04 12:18:43;;;;;;;4.43;2.57;;;;;;;;;;5093428;28;20269;-66
2023/06/04 12:21:26;;;;;;;2.50;2.27;;;;;;;;;;5093421;28;20220;-66
2023/06/04 12:23:53;;;;;;;3.73;2.63;;;;;;;;;;5094052;28;20199;-66
2023/06/04 12:26:28;;;;;;;10.50;2.50;;;;;;;;;;5093753;28;20222;-66
2023/06/04 12:29:07;;;;;;;4.13;2.67;;;;;;;;;;5094210;28;20157;-66
2023/06/04 12:31:34;;;;;;;13.03;2.83;;;;;;;;;;5093565;28;20169;-66
2023/06/04 12:34:01;;;;;;;3.10;2.10;;;;;;;;;;5093514;28;20169;-65
2023/06/04 12:36:28;;;;;;;4.80;2.40;;;;;;;;;;5093511;28;20370;-66
2023/06/04 12:38:54;;;;;;;2.97;2.63;;;;;;;;;;5093546;28;20200;-65
2023/06/04 12:41:20;;;;;;;4.90;2.30;;;;;;;;;;5093160;28;20679;-66
2023/06/04 12:43:46;;;;;;;6.30;3.20;;;;;;;;;;5074803;28;20180;-66
2023/06/04 12:46:12;;;;;;;3.67;2.70;;;;;;;;;;5075163;28;20178;-66
2023/06/04 12:48:38;;;;;;;5.27;2.60;;;;;;;;;;5075074;28;20654;-66
2023/06/04 12:51:04;;;;;;;2.80;2.53;;;;;;;;;;5095743;28;20207;-66
2023/06/04 12:53:30;;;;;;;5.03;2.53;;;;;;;;;;5097385;28;20669;-66
2023/06/04 12:55:56;;;;;;;2.77;2.47;;;;;;;;;;5097190;28;20181;-66
2023/06/04 12:58:22;;;;;;;3.33;2.40;;;;;;;;;;5078715;28;20200;-66
2023/06/04 13:00:48;;;;;;;4.37;2.77;;;;;;;;;;5097158;28;20193;-66
2023/06/04 13:03:14;;;;;;;5.80;3.03;;;;;;;;;;5096988;28;20260;-66
2023/06/04 13:05:40;;;;;;;4.67;2.73;;;;;;;;;;5078748;28;20645;-66
2023/06/04 13:08:06;;;;;;;4.57;3.10;;;;;;;;;;5078795;28;20188;-66
2023/06/04 13:10:32;;;;;;;6.73;2.70;;;;;;;;;;5078672;28;20205;-66
2023/06/04 13:12:58;;;;;;;3.20;2.80;;;;;;;;;;5096798;28;20177;-66
2023/06/04 13:15:25;;;;;;;5.77;2.97;;;;;;;;;;5096703;28;20227;-66
2023/06/04 13:17:50;;;;;;;4.47;2.73;;;;;;;;;;5078461;28;20281;-66
2023/06/04 13:20:16;;;;;;;4.43;2.77;;;;;;;;;;5096470;28;20694;-66
2023/06/04 13:22:43;;;;;;;4.80;2.67;;;;;;;;;;5078461;28;20647;-66
2023/06/04 13:25:09;;;;;;;3.20;2.90;;;;;;;;;;5096534;28;20169;-66
2023/06/04 13:27:35;;;;;;;6.03;2.87;;;;;;;;;;5096452;28;20634;-66
2023/06/04 13:30:01;;;;;;;5.03;2.60;;;;;;;;;;5096660;28;20239;-66
2023/06/04 13:32:27;;;;;;;6.10;2.87;;;;;;;;;;5096393;28;20230;-66
2023/06/04 13:34:53;;;;;;;3.10;2.80;;;;;;;;;;5078207;28;20264;-70
2023/06/04 13:37:19;;;;;;;4.03;2.42;;;;;;;;;;5096660;28;20096;-70
2023/06/04 13:39:45;;;;;;;5.83;2.60;;;;;;;;;;5096319;28;20366;-68
2023/06/04 13:42:11;;;;;;;5.33;2.40;;;;;;;;;;5096384;28;20611;-67
2023/06/04 13:44:37;;;;;;;3.22;2.40;;;;;;;;;;5077930;28;20238;-65
2023/06/04 13:47:04;;;;;;;6.23;2.70;;;;;;;;;;5095911;28;20200;-68
2023/06/04 13:49:30;;;;;;;3.20;2.73;;;;;;;;;;5077914;28;20228;-65
2023/06/04 13:51:56;;;;;;;5.03;3.00;;;;;;;;;;5096229;28;20655;-68
2023/06/04 13:54:22;;;;;;;3.40;2.90;;;;;;;;;;5096497;28;20180;-68
2023/06/04 13:56:48;;;;;;;3.20;2.90;;;;;;;;;;5096204;28;20180;-68
2023/06/04 13:59:14;;;;;;;4.23;3.40;;;;;;;;;;5077717;28;20209;-65
2023/06/04 14:01:41;;;;;;;4.40;3.07;;;;;;;;;;5077399;28;20184;-67
2023/06/04 14:04:07;;;;;;;3.93;2.77;;;;;;;;;;5096039;28;20542;-66
2023/06/04 14:06:35;;;;;;;6.27;3.20;;;;;;;;;;5096317;28;20252;-65
2023/06/04 14:09:01;;;;;;;3.30;3.00;;;;;;;;;;5077539;28;20178;-65
2023/06/04 14:11:27;;;;;;;4.50;2.93;;;;;;;;;;5095483;28;20266;-65
2023/06/04 14:13:53;;;;;;;3.37;3.07;;;;;;;;;;5095625;28;20169;-65
2023/06/04 14:16:19;;;;;;;4.87;2.90;;;;;;;;;;5095595;28;20220;-67
2023/06/04 14:18:45;;;;;;;3.23;2.87;;;;;;;;;;5077482;28;20201;-66
2023/06/04 14:21:11;;;;;;;9.50;3.80;;;;;;;;;;5095806;28;20209;-66
2023/06/04 14:23:37;;;;;;;6.10;5.27;;;;;;;;;;5078111;28;20176;-66
2023/06/04 14:26:03;;;;;;;3.97;3.57;;;;;;;;;;5095330;28;20178;-64
2023/06/04 14:28:29;;;;;;;5.77;5.20;;;;;;;;;;5095713;28;20208;-66
2023/06/04 14:30:55;;;;;;;4.47;3.27;;;;;;;;;;5095171;28;20220;-67
2023/06/04 14:33:20;;;;;;;7.23;3.10;;;;;;;;;;5095390;28;20558;-66
2023/06/04 14:35:46;;;;;;;6.10;3.33;;;;;;;;;;5077065;28;20173;-66
2023/06/04 14:38:14;;;;;;;8.63;2.90;;;;;;;;;;5095096;28;20225;-65
2023/06/04 14:40:41;;;;;;;8.20;2.80;;;;;;;;;;5076817;28;20304;-65
2023/06/04 14:43:07;;;;;;;4.10;3.17;;;;;;;;;;5076969;28;20181;-65